Terminal Aerodrome Forecast
Issued by NWS Shreveport, LA

Home | Current Version | Previous Version | Text Only | Print | Product List | Glossary On
Versions: 1 2 3 4 5 6 7 8 9 10 11 12 13 14 15 16 17 18
857
FTUS44 KSHV 232341
TAFSHV
TAF
KSHV 232341Z 2400/2424 18007KT P6SM SCT045
     FM240100 17005KT P6SM SKC
     FM241300 18004KT P6SM SCT008
     FM241500 21006KT P6SM SCT015
     FM241700 22006KT P6SM BKN050=

USA.gov is the U.S. government's official web portal to all federal, state and local government web resources and services.